sensor_id;sensor_type;location;lat;lon;timestamp;P1;durP1;ratioP1;P2;durP2;ratioP2
42332;SDS011;27984;51.476;5.702;2024-03-08T00:00:08;53.03;;;27.17;;
42332;SDS011;27984;51.476;5.702;2024-03-08T00:02:36;53.22;;;28.10;;
42332;SDS011;27984;51.476;5.702;2024-03-08T00:05:06;48.58;;;26.30;;
42332;SDS011;27984;51.476;5.702;2024-03-08T00:07:34;58.05;;;28.10;;
42332;SDS011;27984;51.476;5.702;2024-03-08T00:10:00;50.83;;;27.42;;
42332;SDS011;27984;51.476;5.702;2024-03-08T00:12:26;52.88;;;27.77;;
42332;SDS011;27984;51.476;5.702;2024-03-08T00:14:53;48.95;;;27.38;;
42332;SDS011;27984;51.476;5.702;2024-03-08T00:17:19;49.30;;;26.90;;
42332;SDS011;27984;51.476;5.702;2024-03-08T00:19:50;49.00;;;27.50;;
42332;SDS011;27984;51.476;5.702;2024-03-08T00:22:16;53.05;;;27.50;;
42332;SDS011;27984;51.476;5.702;2024-03-08T00:24:42;57.65;;;26.73;;
42332;SDS011;27984;51.476;5.702;2024-03-08T00:27:09;49.58;;;27.15;;
42332;SDS011;27984;51.476;5.702;2024-03-08T00:29:36;48.13;;;26.30;;
42332;SDS011;27984;51.476;5.702;2024-03-08T00:32:03;43.33;;;25.33;;
42332;SDS011;27984;51.476;5.702;2024-03-08T00:34:29;47.55;;;26.38;;
42332;SDS011;27984;51.476;5.702;2024-03-08T00:36:56;46.60;;;26.25;;
42332;SDS011;27984;51.476;5.702;2024-03-08T00:39:23;50.35;;;26.52;;
42332;SDS011;27984;51.476;5.702;2024-03-08T00:41:50;46.58;;;26.30;;
42332;SDS011;27984;51.476;5.702;2024-03-08T00:44:16;51.25;;;26.30;;
42332;SDS011;27984;51.476;5.702;2024-03-08T00:46:42;45.35;;;25.92;;
42332;SDS011;27984;51.476;5.702;2024-03-08T00:49:08;51.97;;;26.58;;
42332;SDS011;27984;51.476;5.702;2024-03-08T00:51:34;46.22;;;25.63;;
42332;SDS011;27984;51.476;5.702;2024-03-08T00:54:01;45.28;;;26.45;;
42332;SDS011;27984;51.476;5.702;2024-03-08T00:56:27;47.58;;;26.27;;
42332;SDS011;27984;51.476;5.702;2024-03-08T00:58:53;46.28;;;26.05;;
42332;SDS011;27984;51.476;5.702;2024-03-08T01:01:19;41.67;;;25.05;;
42332;SDS011;27984;51.476;5.702;2024-03-08T01:03:45;44.88;;;25.80;;
42332;SDS011;27984;51.476;5.702;2024-03-08T01:06:11;48.15;;;26.10;;
42332;SDS011;27984;51.476;5.702;2024-03-08T01:08:37;43.00;;;25.85;;
42332;SDS011;27984;51.476;5.702;2024-03-08T01:11:06;49.13;;;26.08;;
42332;SDS011;27984;51.476;5.702;2024-03-08T01:13:31;41.05;;;25.63;;
42332;SDS011;27984;51.476;5.702;2024-03-08T01:15:57;41.08;;;25.45;;
42332;SDS011;27984;51.476;5.702;2024-03-08T01:18:23;46.97;;;25.23;;
42332;SDS011;27984;51.476;5.702;2024-03-08T01:20:49;48.05;;;26.73;;
42332;SDS011;27984;51.476;5.702;2024-03-08T01:23:15;45.58;;;26.27;;
42332;SDS011;27984;51.476;5.702;2024-03-08T01:25:42;43.63;;;26.33;;
42332;SDS011;27984;51.476;5.702;2024-03-08T01:28:09;46.13;;;26.17;;
42332;SDS011;27984;51.476;5.702;2024-03-08T01:30:35;47.45;;;26.67;;
42332;SDS011;27984;51.476;5.702;2024-03-08T01:33:02;42.92;;;25.58;;
42332;SDS011;27984;51.476;5.702;2024-03-08T01:35:28;44.88;;;25.45;;
42332;SDS011;27984;51.476;5.702;2024-03-08T01:37:54;42.95;;;25.83;;
42332;SDS011;27984;51.476;5.702;2024-03-08T01:40:21;44.72;;;25.48;;
42332;SDS011;27984;51.476;5.702;2024-03-08T01:42:47;40.40;;;25.65;;
42332;SDS011;27984;51.476;5.702;2024-03-08T01:45:13;41.40;;;25.83;;
42332;SDS011;27984;51.476;5.702;2024-03-08T01:47:39;43.70;;;25.88;;
42332;SDS011;27984;51.476;5.702;2024-03-08T01:50:05;48.45;;;26.33;;
42332;SDS011;27984;51.476;5.702;2024-03-08T01:52:32;40.55;;;25.80;;
42332;SDS011;27984;51.476;5.702;2024-03-08T01:55:02;44.42;;;25.70;;
42332;SDS011;27984;51.476;5.702;2024-03-08T01:57:29;47.00;;;25.45;;
42332;SDS011;27984;51.476;5.702;2024-03-08T01:59:58;45.95;;;26.13;;
42332;SDS011;27984;51.476;5.702;2024-03-08T02:02:29;45.85;;;26.30;;
42332;SDS011;27984;51.476;5.702;2024-03-08T02:04:57;44.30;;;26.42;;
42332;SDS011;27984;51.476;5.702;2024-03-08T02:07:23;42.50;;;25.40;;
42332;SDS011;27984;51.476;5.702;2024-03-08T02:09:49;42.08;;;25.67;;
42332;SDS011;27984;51.476;5.702;2024-03-08T02:12:16;45.40;;;25.67;;
42332;SDS011;27984;51.476;5.702;2024-03-08T02:14:42;45.83;;;26.05;;
42332;SDS011;27984;51.476;5.702;2024-03-08T02:17:09;45.25;;;26.88;;
42332;SDS011;27984;51.476;5.702;2024-03-08T02:19:36;48.28;;;28.00;;
42332;SDS011;27984;51.476;5.702;2024-03-08T02:22:02;43.45;;;26.67;;
42332;SDS011;27984;51.476;5.702;2024-03-08T02:24:29;42.70;;;26.33;;
42332;SDS011;27984;51.476;5.702;2024-03-08T02:26:55;44.85;;;25.48;;
42332;SDS011;27984;51.476;5.702;2024-03-08T02:29:21;44.80;;;26.40;;
42332;SDS011;27984;51.476;5.702;2024-03-08T02:31:50;43.70;;;27.00;;
42332;SDS011;27984;51.476;5.702;2024-03-08T02:34:16;42.63;;;26.33;;
42332;SDS011;27984;51.476;5.702;2024-03-08T02:36:42;42.75;;;26.50;;
42332;SDS011;27984;51.476;5.702;2024-03-08T02:39:08;45.97;;;26.65;;
42332;SDS011;27984;51.476;5.702;2024-03-08T02:41:35;46.17;;;26.73;;
42332;SDS011;27984;51.476;5.702;2024-03-08T02:44:01;45.42;;;26.27;;
42332;SDS011;27984;51.476;5.702;2024-03-08T02:46:28;45.15;;;27.27;;
42332;SDS011;27984;51.476;5.702;2024-03-08T02:48:55;44.80;;;26.83;;
42332;SDS011;27984;51.476;5.702;2024-03-08T02:51:21;46.70;;;26.63;;
42332;SDS011;27984;51.476;5.702;2024-03-08T02:53:47;44.42;;;27.50;;
42332;SDS011;27984;51.476;5.702;2024-03-08T02:56:16;47.33;;;28.05;;
42332;SDS011;27984;51.476;5.702;2024-03-08T02:58:43;47.03;;;26.70;;
42332;SDS011;27984;51.476;5.702;2024-03-08T03:01:13;48.50;;;28.13;;
42332;SDS011;27984;51.476;5.702;2024-03-08T03:03:39;48.47;;;28.77;;
42332;SDS011;27984;51.476;5.702;2024-03-08T03:06:05;45.83;;;26.38;;
42332;SDS011;27984;51.476;5.702;2024-03-08T03:08:32;49.33;;;27.73;;
42332;SDS011;27984;51.476;5.702;2024-03-08T03:10:58;45.25;;;27.92;;
42332;SDS011;27984;51.476;5.702;2024-03-08T03:13:24;51.30;;;29.08;;
42332;SDS011;27984;51.476;5.702;2024-03-08T03:15:50;47.85;;;28.98;;
42332;SDS011;27984;51.476;5.702;2024-03-08T03:18:16;45.90;;;28.17;;
42332;SDS011;27984;51.476;5.702;2024-03-08T03:20:46;42.45;;;27.30;;
42332;SDS011;27984;51.476;5.702;2024-03-08T03:23:12;46.63;;;29.27;;
42332;SDS011;27984;51.476;5.702;2024-03-08T03:25:39;46.33;;;28.45;;
42332;SDS011;27984;51.476;5.702;2024-03-08T03:28:06;47.60;;;28.55;;
42332;SDS011;27984;51.476;5.702;2024-03-08T03:30:33;43.70;;;27.33;;
42332;SDS011;27984;51.476;5.702;2024-03-08T03:33:02;48.38;;;29.02;;
42332;SDS011;27984;51.476;5.702;2024-03-08T03:35:35;47.13;;;28.90;;
42332;SDS011;27984;51.476;5.702;2024-03-08T03:38:04;47.05;;;28.63;;
42332;SDS011;27984;51.476;5.702;2024-03-08T03:40:33;49.63;;;28.70;;
42332;SDS011;27984;51.476;5.702;2024-03-08T03:43:00;47.58;;;29.33;;
42332;SDS011;27984;51.476;5.702;2024-03-08T03:45:26;48.83;;;29.13;;
42332;SDS011;27984;51.476;5.702;2024-03-08T03:47:52;46.58;;;27.95;;
42332;SDS011;27984;51.476;5.702;2024-03-08T03:50:19;49.95;;;28.80;;
42332;SDS011;27984;51.476;5.702;2024-03-08T03:52:48;49.22;;;29.00;;
42332;SDS011;27984;51.476;5.702;2024-03-08T03:55:14;45.40;;;28.80;;
42332;SDS011;27984;51.476;5.702;2024-03-08T03:57:40;46.30;;;29.52;;
42332;SDS011;27984;51.476;5.702;2024-03-08T04:00:07;46.85;;;29.15;;
42332;SDS011;27984;51.476;5.702;2024-03-08T04:02:39;46.17;;;29.65;;
42332;SDS011;27984;51.476;5.702;2024-03-08T04:05:06;50.25;;;29.67;;
42332;SDS011;27984;51.476;5.702;2024-03-08T04:07:32;50.30;;;29.98;;
42332;SDS011;27984;51.476;5.702;2024-03-08T04:09:59;49.10;;;30.08;;
42332;SDS011;27984;51.476;5.702;2024-03-08T04:12:25;47.42;;;30.05;;
42332;SDS011;27984;51.476;5.702;2024-03-08T04:14:51;46.30;;;29.95;;
42332;SDS011;27984;51.476;5.702;2024-03-08T04:17:18;50.67;;;29.20;;
42332;SDS011;27984;51.476;5.702;2024-03-08T04:19:44;48.80;;;29.02;;
42332;SDS011;27984;51.476;5.702;2024-03-08T04:22:10;51.03;;;29.73;;
42332;SDS011;27984;51.476;5.702;2024-03-08T04:24:36;51.92;;;29.35;;
42332;SDS011;27984;51.476;5.702;2024-03-08T04:27:02;50.58;;;30.88;;
42332;SDS011;27984;51.476;5.702;2024-03-08T04:29:29;45.88;;;29.30;;
42332;SDS011;27984;51.476;5.702;2024-03-08T04:31:55;46.40;;;29.75;;
42332;SDS011;27984;51.476;5.702;2024-03-08T04:34:21;51.65;;;31.13;;
42332;SDS011;27984;51.476;5.702;2024-03-08T04:36:48;46.15;;;29.23;;
42332;SDS011;27984;51.476;5.702;2024-03-08T04:39:14;52.78;;;31.85;;
42332;SDS011;27984;51.476;5.702;2024-03-08T04:41:40;50.70;;;30.77;;
42332;SDS011;27984;51.476;5.702;2024-03-08T04:44:08;49.42;;;30.30;;
42332;SDS011;27984;51.476;5.702;2024-03-08T04:46:34;50.20;;;30.88;;
42332;SDS011;27984;51.476;5.702;2024-03-08T04:49:00;49.90;;;31.30;;
42332;SDS011;27984;51.476;5.702;2024-03-08T04:51:26;52.28;;;32.25;;
42332;SDS011;27984;51.476;5.702;2024-03-08T04:53:52;50.20;;;31.35;;
42332;SDS011;27984;51.476;5.702;2024-03-08T04:56:18;52.20;;;30.60;;
42332;SDS011;27984;51.476;5.702;2024-03-08T04:58:44;56.55;;;32.30;;
42332;SDS011;27984;51.476;5.702;2024-03-08T05:01:14;53.05;;;31.98;;
42332;SDS011;27984;51.476;5.702;2024-03-08T05:03:40;52.58;;;32.03;;
42332;SDS011;27984;51.476;5.702;2024-03-08T05:06:06;53.78;;;32.70;;
42332;SDS011;27984;51.476;5.702;2024-03-08T05:08:32;58.03;;;32.85;;
42332;SDS011;27984;51.476;5.702;2024-03-08T05:10:59;52.67;;;31.88;;
42332;SDS011;27984;51.476;5.702;2024-03-08T05:13:28;51.38;;;31.73;;
42332;SDS011;27984;51.476;5.702;2024-03-08T05:15:55;54.95;;;32.97;;
42332;SDS011;27984;51.476;5.702;2024-03-08T05:18:23;56.85;;;34.05;;
42332;SDS011;27984;51.476;5.702;2024-03-08T05:20:49;56.22;;;33.05;;
42332;SDS011;27984;51.476;5.702;2024-03-08T05:23:16;53.25;;;31.63;;
42332;SDS011;27984;51.476;5.702;2024-03-08T05:25:44;54.65;;;32.00;;
42332;SDS011;27984;51.476;5.702;2024-03-08T05:28:12;58.20;;;32.75;;
42332;SDS011;27984;51.476;5.702;2024-03-08T05:30:38;57.78;;;32.45;;
42332;SDS011;27984;51.476;5.702;2024-03-08T05:33:04;51.80;;;31.30;;
42332;SDS011;27984;51.476;5.702;2024-03-08T05:35:30;57.97;;;31.30;;
42332;SDS011;27984;51.476;5.702;2024-03-08T05:37:57;55.92;;;33.83;;
42332;SDS011;27984;51.476;5.702;2024-03-08T05:40:23;54.45;;;31.98;;
42332;SDS011;27984;51.476;5.702;2024-03-08T05:42:49;56.25;;;32.97;;
42332;SDS011;27984;51.476;5.702;2024-03-08T05:45:15;53.13;;;32.50;;
42332;SDS011;27984;51.476;5.702;2024-03-08T05:47:41;54.20;;;33.55;;
42332;SDS011;27984;51.476;5.702;2024-03-08T05:50:07;56.92;;;31.95;;
42332;SDS011;27984;51.476;5.702;2024-03-08T05:52:35;56.78;;;33.22;;
42332;SDS011;27984;51.476;5.702;2024-03-08T05:55:03;54.88;;;33.13;;
42332;SDS011;27984;51.476;5.702;2024-03-08T05:57:32;52.05;;;32.35;;
42332;SDS011;27984;51.476;5.702;2024-03-08T05:59:58;53.97;;;32.85;;
42332;SDS011;27984;51.476;5.702;2024-03-08T06:02:24;59.92;;;33.45;;
42332;SDS011;27984;51.476;5.702;2024-03-08T06:04:50;56.42;;;33.75;;
42332;SDS011;27984;51.476;5.702;2024-03-08T06:07:16;60.83;;;34.08;;
42332;SDS011;27984;51.476;5.702;2024-03-08T06:09:42;56.35;;;33.45;;
42332;SDS011;27984;51.476;5.702;2024-03-08T06:12:11;56.92;;;33.50;;
42332;SDS011;27984;51.476;5.702;2024-03-08T06:14:37;56.13;;;32.58;;
42332;SDS011;27984;51.476;5.702;2024-03-08T06:17:03;59.92;;;33.97;;
42332;SDS011;27984;51.476;5.702;2024-03-08T06:19:32;62.40;;;33.97;;
42332;SDS011;27984;51.476;5.702;2024-03-08T06:21:58;58.17;;;33.15;;
42332;SDS011;27984;51.476;5.702;2024-03-08T06:24:27;57.15;;;33.75;;
42332;SDS011;27984;51.476;5.702;2024-03-08T06:26:53;53.72;;;32.47;;
42332;SDS011;27984;51.476;5.702;2024-03-08T06:29:19;56.35;;;31.90;;
42332;SDS011;27984;51.476;5.702;2024-03-08T06:31:45;57.22;;;32.92;;
42332;SDS011;27984;51.476;5.702;2024-03-08T06:34:11;54.92;;;32.75;;
42332;SDS011;27984;51.476;5.702;2024-03-08T06:36:37;56.55;;;33.75;;
42332;SDS011;27984;51.476;5.702;2024-03-08T06:39:03;54.13;;;32.55;;
42332;SDS011;27984;51.476;5.702;2024-03-08T06:41:34;57.42;;;34.05;;
42332;SDS011;27984;51.476;5.702;2024-03-08T06:44:00;54.70;;;33.13;;
42332;SDS011;27984;51.476;5.702;2024-03-08T06:46:26;57.20;;;33.47;;
42332;SDS011;27984;51.476;5.702;2024-03-08T06:48:53;55.72;;;32.42;;
42332;SDS011;27984;51.476;5.702;2024-03-08T06:51:19;57.33;;;32.17;;
42332;SDS011;27984;51.476;5.702;2024-03-08T06:53:45;58.40;;;32.35;;
42332;SDS011;27984;51.476;5.702;2024-03-08T06:56:11;54.03;;;32.25;;
42332;SDS011;27984;51.476;5.702;2024-03-08T06:58:37;51.88;;;31.77;;
42332;SDS011;27984;51.476;5.702;2024-03-08T07:01:03;53.30;;;31.67;;
42332;SDS011;27984;51.476;5.702;2024-03-08T07:03:32;49.20;;;30.38;;
42332;SDS011;27984;51.476;5.702;2024-03-08T07:05:58;53.63;;;32.08;;
42332;SDS011;27984;51.476;5.702;2024-03-08T07:08:24;49.85;;;30.33;;
42332;SDS011;27984;51.476;5.702;2024-03-08T07:10:52;50.33;;;29.50;;
42332;SDS011;27984;51.476;5.702;2024-03-08T07:13:18;50.88;;;29.63;;
42332;SDS011;27984;51.476;5.702;2024-03-08T07:15:44;48.83;;;29.52;;
42332;SDS011;27984;51.476;5.702;2024-03-08T07:18:10;56.25;;;30.67;;
42332;SDS011;27984;51.476;5.702;2024-03-08T07:20:39;47.13;;;28.65;;
42332;SDS011;27984;51.476;5.702;2024-03-08T07:23:06;48.67;;;28.08;;
42332;SDS011;27984;51.476;5.702;2024-03-08T07:25:33;44.97;;;28.35;;
42332;SDS011;27984;51.476;5.702;2024-03-08T07:28:00;46.53;;;26.98;;
42332;SDS011;27984;51.476;5.702;2024-03-08T07:30:26;42.80;;;26.77;;
42332;SDS011;27984;51.476;5.702;2024-03-08T07:33:10;42.90;;;26.88;;
42332;SDS011;27984;51.476;5.702;2024-03-08T07:35:37;43.15;;;26.27;;
42332;SDS011;27984;51.476;5.702;2024-03-08T07:38:04;40.08;;;25.00;;
42332;SDS011;27984;51.476;5.702;2024-03-08T07:40:30;37.42;;;24.83;;
42332;SDS011;27984;51.476;5.702;2024-03-08T07:42:56;38.33;;;24.00;;
42332;SDS011;27984;51.476;5.702;2024-03-08T07:45:23;34.80;;;24.17;;
42332;SDS011;27984;51.476;5.702;2024-03-08T07:47:49;37.13;;;23.73;;
42332;SDS011;27984;51.476;5.702;2024-03-08T07:50:16;35.35;;;24.20;;
42332;SDS011;27984;51.476;5.702;2024-03-08T07:52:42;37.15;;;23.35;;
42332;SDS011;27984;51.476;5.702;2024-03-08T07:55:08;34.90;;;22.85;;
42332;SDS011;27984;51.476;5.702;2024-03-08T07:57:35;34.53;;;24.08;;
42332;SDS011;27984;51.476;5.702;2024-03-08T08:00:03;34.40;;;23.38;;
42332;SDS011;27984;51.476;5.702;2024-03-08T08:02:32;36.38;;;23.45;;
42332;SDS011;27984;51.476;5.702;2024-03-08T08:04:59;34.63;;;23.25;;
42332;SDS011;27984;51.476;5.702;2024-03-08T08:07:25;35.30;;;23.73;;
42332;SDS011;27984;51.476;5.702;2024-03-08T08:09:52;32.92;;;22.98;;
42332;SDS011;27984;51.476;5.702;2024-03-08T08:12:18;33.83;;;23.40;;
42332;SDS011;27984;51.476;5.702;2024-03-08T08:14:45;29.88;;;22.17;;
42332;SDS011;27984;51.476;5.702;2024-03-08T08:17:11;33.15;;;22.92;;
42332;SDS011;27984;51.476;5.702;2024-03-08T08:19:37;30.85;;;22.73;;
42332;SDS011;27984;51.476;5.702;2024-03-08T08:22:04;30.50;;;22.42;;
42332;SDS011;27984;51.476;5.702;2024-03-08T08:24:30;31.70;;;22.75;;
42332;SDS011;27984;51.476;5.702;2024-03-08T08:26:56;35.83;;;23.08;;
42332;SDS011;27984;51.476;5.702;2024-03-08T08:29:22;36.05;;;23.73;;
42332;SDS011;27984;51.476;5.702;2024-03-08T08:31:48;33.65;;;22.45;;
42332;SDS011;27984;51.476;5.702;2024-03-08T08:34:15;31.45;;;23.27;;
42332;SDS011;27984;51.476;5.702;2024-03-08T08:36:41;33.92;;;22.65;;
42332;SDS011;27984;51.476;5.702;2024-03-08T08:39:07;32.03;;;22.20;;
42332;SDS011;27984;51.476;5.702;2024-03-08T08:41:38;29.25;;;21.63;;
42332;SDS011;27984;51.476;5.702;2024-03-08T08:44:06;36.72;;;22.15;;
42332;SDS011;27984;51.476;5.702;2024-03-08T08:46:35;28.98;;;21.00;;
42332;SDS011;27984;51.476;5.702;2024-03-08T08:49:02;29.88;;;20.85;;
42332;SDS011;27984;51.476;5.702;2024-03-08T08:51:28;30.27;;;21.08;;
42332;SDS011;27984;51.476;5.702;2024-03-08T08:53:54;30.65;;;21.40;;
42332;SDS011;27984;51.476;5.702;2024-03-08T08:56:21;27.75;;;21.05;;
42332;SDS011;27984;51.476;5.702;2024-03-08T08:58:47;31.13;;;21.13;;
42332;SDS011;27984;51.476;5.702;2024-03-08T09:01:14;28.65;;;20.63;;
42332;SDS011;27984;51.476;5.702;2024-03-08T09:03:40;32.72;;;20.95;;
42332;SDS011;27984;51.476;5.702;2024-03-08T09:06:07;31.60;;;20.77;;
42332;SDS011;27984;51.476;5.702;2024-03-08T09:08:36;29.33;;;21.33;;
42332;SDS011;27984;51.476;5.702;2024-03-08T09:11:05;33.13;;;20.60;;
42332;SDS011;27984;51.476;5.702;2024-03-08T09:13:31;32.30;;;20.98;;
42332;SDS011;27984;51.476;5.702;2024-03-08T09:15:58;33.33;;;21.48;;
42332;SDS011;27984;51.476;5.702;2024-03-08T09:18:24;28.70;;;20.65;;
42332;SDS011;27984;51.476;5.702;2024-03-08T09:20:51;33.28;;;21.95;;
42332;SDS011;27984;51.476;5.702;2024-03-08T09:23:21;30.00;;;20.85;;
42332;SDS011;27984;51.476;5.702;2024-03-08T09:25:47;28.00;;;20.83;;
42332;SDS011;27984;51.476;5.702;2024-03-08T09:28:13;30.55;;;20.00;;
42332;SDS011;27984;51.476;5.702;2024-03-08T09:30:40;29.00;;;19.90;;
42332;SDS011;27984;51.476;5.702;2024-03-08T09:33:07;27.63;;;20.20;;
42332;SDS011;27984;51.476;5.702;2024-03-08T09:35:34;27.20;;;19.40;;
42332;SDS011;27984;51.476;5.702;2024-03-08T09:38:00;28.38;;;20.38;;
42332;SDS011;27984;51.476;5.702;2024-03-08T09:40:26;28.90;;;20.52;;
42332;SDS011;27984;51.476;5.702;2024-03-08T09:42:52;27.58;;;19.13;;
42332;SDS011;27984;51.476;5.702;2024-03-08T09:45:20;27.58;;;19.98;;
42332;SDS011;27984;51.476;5.702;2024-03-08T09:47:50;28.55;;;19.15;;
42332;SDS011;27984;51.476;5.702;2024-03-08T09:50:16;25.63;;;19.08;;
42332;SDS011;27984;51.476;5.702;2024-03-08T09:52:43;27.45;;;20.17;;
42332;SDS011;27984;51.476;5.702;2024-03-08T09:55:09;32.03;;;19.77;;
42332;SDS011;27984;51.476;5.702;2024-03-08T09:57:42;26.23;;;20.05;;
42332;SDS011;27984;51.476;5.702;2024-03-08T10:00:27;25.65;;;19.02;;
42332;SDS011;27984;51.476;5.702;2024-03-08T10:02:53;29.63;;;19.50;;
42332;SDS011;27984;51.476;5.702;2024-03-08T10:05:19;29.77;;;19.25;;
42332;SDS011;27984;51.476;5.702;2024-03-08T10:07:47;28.50;;;19.08;;
42332;SDS011;27984;51.476;5.702;2024-03-08T10:10:13;25.67;;;19.13;;
42332;SDS011;27984;51.476;5.702;2024-03-08T10:12:39;26.08;;;18.17;;
42332;SDS011;27984;51.476;5.702;2024-03-08T10:15:06;23.58;;;18.38;;
42332;SDS011;27984;51.476;5.702;2024-03-08T10:17:33;25.40;;;19.33;;
42332;SDS011;27984;51.476;5.702;2024-03-08T10:19:59;27.70;;;19.23;;
42332;SDS011;27984;51.476;5.702;2024-03-08T10:22:26;24.15;;;18.63;;
42332;SDS011;27984;51.476;5.702;2024-03-08T10:24:52;25.23;;;18.90;;
42332;SDS011;27984;51.476;5.702;2024-03-08T10:27:18;25.58;;;19.25;;
42332;SDS011;27984;51.476;5.702;2024-03-08T10:29:46;24.40;;;18.10;;
42332;SDS011;27984;51.476;5.702;2024-03-08T10:32:12;23.40;;;18.10;;
42332;SDS011;27984;51.476;5.702;2024-03-08T10:34:38;24.33;;;18.80;;
42332;SDS011;27984;51.476;5.702;2024-03-08T10:37:06;24.27;;;17.55;;
42332;SDS011;27984;51.476;5.702;2024-03-08T10:39:36;24.08;;;18.02;;
42332;SDS011;27984;51.476;5.702;2024-03-08T10:42:03;22.73;;;18.00;;
42332;SDS011;27984;51.476;5.702;2024-03-08T10:47:03;24.08;;;17.70;;
42332;SDS011;27984;51.476;5.702;2024-03-08T10:49:38;23.30;;;17.25;;
42332;SDS011;27984;51.476;5.702;2024-03-08T10:52:04;21.83;;;16.73;;
42332;SDS011;27984;51.476;5.702;2024-03-08T10:54:33;24.92;;;16.83;;
42332;SDS011;27984;51.476;5.702;2024-03-08T10:57:00;22.67;;;16.00;;
42332;SDS011;27984;51.476;5.702;2024-03-08T10:59:29;22.92;;;17.27;;
42332;SDS011;27984;51.476;5.702;2024-03-08T11:01:55;20.75;;;17.15;;
42332;SDS011;27984;51.476;5.702;2024-03-08T11:04:21;19.58;;;15.63;;
42332;SDS011;27984;51.476;5.702;2024-03-08T11:06:49;20.15;;;15.05;;
42332;SDS011;27984;51.476;5.702;2024-03-08T11:09:29;18.25;;;13.07;;
42332;SDS011;27984;51.476;5.702;2024-03-08T11:14:47;18.17;;;12.38;;
42332;SDS011;27984;51.476;5.702;2024-03-08T11:17:15;17.00;;;12.13;;
42332;SDS011;27984;51.476;5.702;2024-03-08T11:19:46;17.30;;;11.88;;
42332;SDS011;27984;51.476;5.702;2024-03-08T11:23:13;16.65;;;11.93;;
42332;SDS011;27984;51.476;5.702;2024-03-08T11:25:15;19.17;;;11.45;;
42332;SDS011;27984;51.476;5.702;2024-03-08T11:30:42;16.42;;;11.73;;
42332;SDS011;27984;51.476;5.702;2024-03-08T11:33:12;16.77;;;11.90;;
42332;SDS011;27984;51.476;5.702;2024-03-08T11:35:38;17.35;;;11.68;;
42332;SDS011;27984;51.476;5.702;2024-03-08T11:38:07;15.70;;;11.60;;
42332;SDS011;27984;51.476;5.702;2024-03-08T11:40:33;14.10;;;11.80;;
42332;SDS011;27984;51.476;5.702;2024-03-08T11:43:00;14.75;;;11.75;;
42332;SDS011;27984;51.476;5.702;2024-03-08T11:45:29;17.13;;;12.23;;
42332;SDS011;27984;51.476;5.702;2024-03-08T11:47:55;16.02;;;12.10;;
42332;SDS011;27984;51.476;5.702;2024-03-08T11:50:21;17.67;;;12.35;;
42332;SDS011;27984;51.476;5.702;2024-03-08T11:52:48;13.43;;;11.40;;
42332;SDS011;27984;51.476;5.702;2024-03-08T11:55:15;15.15;;;11.68;;
42332;SDS011;27984;51.476;5.702;2024-03-08T11:57:41;16.27;;;11.75;;
42332;SDS011;27984;51.476;5.702;2024-03-08T12:00:14;15.80;;;12.18;;
42332;SDS011;27984;51.476;5.702;2024-03-08T12:02:46;16.52;;;13.43;;
42332;SDS011;27984;51.476;5.702;2024-03-08T12:05:15;15.20;;;12.07;;
42332;SDS011;27984;51.476;5.702;2024-03-08T12:07:41;18.58;;;13.07;;
42332;SDS011;27984;51.476;5.702;2024-03-08T12:10:21;17.65;;;12.23;;
42332;SDS011;27984;51.476;5.702;2024-03-08T12:12:48;14.90;;;10.90;;
42332;SDS011;27984;51.476;5.702;2024-03-08T12:15:16;13.23;;;10.93;;
42332;SDS011;27984;51.476;5.702;2024-03-08T12:17:43;19.48;;;10.88;;
42332;SDS011;27984;51.476;5.702;2024-03-08T12:20:16;18.30;;;11.05;;
42332;SDS011;27984;51.476;5.702;2024-03-08T12:22:45;19.08;;;12.13;;
42332;SDS011;27984;51.476;5.702;2024-03-08T12:25:11;16.45;;;11.65;;
42332;SDS011;27984;51.476;5.702;2024-03-08T12:27:41;13.70;;;10.98;;
42332;SDS011;27984;51.476;5.702;2024-03-08T12:32:47;16.58;;;10.70;;
42332;SDS011;27984;51.476;5.702;2024-03-08T12:35:13;14.07;;;10.85;;
42332;SDS011;27984;51.476;5.702;2024-03-08T12:37:39;17.60;;;11.20;;
42332;SDS011;27984;51.476;5.702;2024-03-08T12:40:09;13.35;;;10.10;;
42332;SDS011;27984;51.476;5.702;2024-03-08T12:42:35;17.55;;;11.35;;
42332;SDS011;27984;51.476;5.702;2024-03-08T12:45:02;15.43;;;11.23;;
42332;SDS011;27984;51.476;5.702;2024-03-08T12:47:31;16.35;;;10.93;;
42332;SDS011;27984;51.476;5.702;2024-03-08T12:49:58;17.33;;;11.65;;
42332;SDS011;27984;51.476;5.702;2024-03-08T12:52:24;14.82;;;10.63;;
42332;SDS011;27984;51.476;5.702;2024-03-08T12:54:50;16.90;;;10.80;;
42332;SDS011;27984;51.476;5.702;2024-03-08T12:57:16;15.18;;;10.40;;
42332;SDS011;27984;51.476;5.702;2024-03-08T12:59:42;14.90;;;11.13;;
42332;SDS011;27984;51.476;5.702;2024-03-08T13:02:09;13.35;;;10.85;;
42332;SDS011;27984;51.476;5.702;2024-03-08T13:04:36;15.82;;;10.40;;
42332;SDS011;27984;51.476;5.702;2024-03-08T13:07:02;14.35;;;10.48;;
42332;SDS011;27984;51.476;5.702;2024-03-08T13:09:28;16.33;;;11.45;;
42332;SDS011;27984;51.476;5.702;2024-03-08T13:11:54;15.50;;;11.40;;
42332;SDS011;27984;51.476;5.702;2024-03-08T13:14:25;14.10;;;10.88;;
42332;SDS011;27984;51.476;5.702;2024-03-08T13:16:51;14.85;;;10.73;;
42332;SDS011;27984;51.476;5.702;2024-03-08T13:19:17;15.70;;;10.85;;
42332;SDS011;27984;51.476;5.702;2024-03-08T13:21:46;17.42;;;10.30;;
42332;SDS011;27984;51.476;5.702;2024-03-08T13:24:14;14.57;;;11.20;;
42332;SDS011;27984;51.476;5.702;2024-03-08T13:26:41;17.65;;;10.85;;
42332;SDS011;27984;51.476;5.702;2024-03-08T13:29:08;13.88;;;10.93;;
42332;SDS011;27984;51.476;5.702;2024-03-08T13:31:34;14.48;;;10.85;;
42332;SDS011;27984;51.476;5.702;2024-03-08T13:34:01;18.55;;;10.52;;
42332;SDS011;27984;51.476;5.702;2024-03-08T13:36:30;16.48;;;10.57;;
42332;SDS011;27984;51.476;5.702;2024-03-08T13:39:04;20.50;;;12.00;;
42332;SDS011;27984;51.476;5.702;2024-03-08T13:41:40;18.23;;;11.85;;
42332;SDS011;27984;51.476;5.702;2024-03-08T13:44:06;13.80;;;11.20;;
42332;SDS011;27984;51.476;5.702;2024-03-08T13:46:33;14.52;;;10.93;;
42332;SDS011;27984;51.476;5.702;2024-03-08T13:49:03;16.70;;;11.50;;
42332;SDS011;27984;51.476;5.702;2024-03-08T13:51:34;15.40;;;11.45;;
42332;SDS011;27984;51.476;5.702;2024-03-08T13:54:00;14.48;;;11.00;;
42332;SDS011;27984;51.476;5.702;2024-03-08T13:56:27;13.27;;;10.65;;
42332;SDS011;27984;51.476;5.702;2024-03-08T13:58:56;14.88;;;10.93;;
42332;SDS011;27984;51.476;5.702;2024-03-08T14:01:22;13.73;;;10.73;;
42332;SDS011;27984;51.476;5.702;2024-03-08T14:03:48;17.00;;;10.77;;
42332;SDS011;27984;51.476;5.702;2024-03-08T14:06:14;16.20;;;11.50;;
42332;SDS011;27984;51.476;5.702;2024-03-08T14:08:40;13.48;;;10.60;;
42332;SDS011;27984;51.476;5.702;2024-03-08T14:11:06;14.98;;;10.32;;
42332;SDS011;27984;51.476;5.702;2024-03-08T14:13:44;14.27;;;10.40;;
42332;SDS011;27984;51.476;5.702;2024-03-08T14:16:11;14.50;;;10.60;;
42332;SDS011;27984;51.476;5.702;2024-03-08T14:18:37;15.00;;;10.40;;
42332;SDS011;27984;51.476;5.702;2024-03-08T14:21:04;15.10;;;10.73;;
42332;SDS011;27984;51.476;5.702;2024-03-08T14:23:30;14.52;;;9.93;;
42332;SDS011;27984;51.476;5.702;2024-03-08T14:25:57;13.13;;;10.35;;
42332;SDS011;27984;51.476;5.702;2024-03-08T14:28:24;16.25;;;11.38;;
42332;SDS011;27984;51.476;5.702;2024-03-08T14:30:52;15.63;;;10.57;;